Time;durP1;ratioP1;P1;durP2;ratioP2;P2;SDS_P1;SDS_P2;PMS_P1;PMS_P2;Temp;Humidity;BMP_temperature;BMP_pressure;BME280_temperature;BME280_humidity;BME280_pressure;Samples;Min_cycle;Max_cycle;Signal;HPM_P1;HPM_P2
2022/08/06 00:01:53;;;;;;;2.38;0.60;;;14.90;73.50;;;;;;5110548;28;20048;-76
2022/08/06 00:04:19;;;;;;;2.05;0.70;;;14.90;73.60;;;;;;5110500;28;20488;-76
2022/08/06 00:06:45;;;;;;;1.63;0.68;;;14.80;73.70;;;;;;5110361;28;20506;-78
2022/08/06 00:09:11;;;;;;;4.35;0.60;;;14.80;73.70;;;;;;5110465;28;20043;-78
2022/08/06 00:11:38;;;;;;;1.70;0.60;;;14.80;73.90;;;;;;5076491;28;20036;-78
2022/08/06 00:14:04;;;;;;;4.15;0.85;;;14.80;73.80;;;;;;5076504;28;20043;-78
2022/08/06 00:16:30;;;;;;;2.33;0.68;;;14.80;74.00;;;;;;5093106;28;20048;-76
2022/08/06 00:18:56;;;;;;;2.38;0.50;;;14.80;73.90;;;;;;5110242;28;20043;-77
2022/08/06 00:21:21;;;;;;;1.42;0.60;;;14.80;73.90;;;;;;5076512;28;20119;-77
2022/08/06 00:23:47;;;;;;;1.33;0.95;;;14.80;73.90;;;;;;5110043;28;20468;-77
2022/08/06 00:26:13;;;;;;;4.82;1.05;;;14.80;73.90;;;;;;5076082;28;20039;-76
2022/08/06 00:28:38;;;;;;;1.30;0.70;;;14.70;74.00;;;;;;5076195;28;20109;-77
2022/08/06 00:31:07;;;;;;;1.63;0.90;;;14.70;74.00;;;;;;5109962;28;20043;-78
2022/08/06 00:33:33;;;;;;;3.58;0.80;;;14.70;74.10;;;;;;5110262;28;20036;-78
2022/08/06 00:35:59;;;;;;;4.90;1.42;;;14.70;74.20;;;;;;5110060;28;20079;-76
2022/08/06 00:38:24;;;;;;;2.65;1.00;;;14.60;74.20;;;;;;5109696;28;20526;-78
2022/08/06 00:40:50;;;;;;;4.35;1.15;;;14.60;74.30;;;;;;5075950;28;20074;-76
2022/08/06 00:43:16;;;;;;;4.80;1.02;;;14.50;74.60;;;;;;5109742;28;20047;-77
2022/08/06 00:45:42;;;;;;;2.35;1.20;;;14.50;74.80;;;;;;5092509;28;20040;-77
2022/08/06 00:48:08;;;;;;;2.90;0.95;;;14.30;75.20;;;;;;5076128;28;20047;-78
2022/08/06 00:50:34;;;;;;;1.50;0.98;;;14.20;75.40;;;;;;5076030;28;20495;-77
2022/08/06 00:53:00;;;;;;;1.33;1.05;;;14.00;75.60;;;;;;5075933;28;20054;-76
2022/08/06 00:55:27;;;;;;;2.40;1.40;;;14.00;75.80;;;;;;5109923;28;20052;-76
2022/08/06 00:57:52;;;;;;;1.63;1.08;;;14.00;76.10;;;;;;5075835;28;20492;-78
2022/08/06 01:00:18;;;;;;;2.42;1.20;;;13.90;76.20;;;;;;5075823;28;20105;-77
2022/08/06 01:02:44;;;;;;;2.03;1.00;;;13.80;76.30;;;;;;5109448;28;20506;-76
2022/08/06 01:05:10;;;;;;;3.58;1.20;;;13.70;76.70;;;;;;5109351;28;20044;-78
2022/08/06 01:07:35;;;;;;;4.35;2.00;;;13.70;76.70;;;;;;5074529;28;20480;-76
2022/08/06 01:10:01;;;;;;;2.80;1.40;;;13.70;76.80;;;;;;5109313;28;20044;-77
2022/08/06 01:12:27;;;;;;;3.85;1.63;;;13.60;77.10;;;;;;5109222;28;20032;-78
2022/08/06 01:14:53;;;;;;;4.05;1.52;;;13.60;77.00;;;;;;5109051;28;20050;-78
2022/08/06 01:17:30;;;;;;;2.88;1.63;;;13.60;77.30;;;;;;5075330;28;20048;-78
2022/08/06 01:20:01;;;;;;;2.22;1.35;;;13.50;77.50;;;;;;5109164;28;20036;-77
2022/08/06 01:22:32;;;;;;;3.83;1.55;;;13.50;77.50;;;;;;5109071;28;20040;-78
2022/08/06 01:25:36;;;;;;;2.42;1.40;;;13.50;77.90;;;;;;5108912;28;20048;-78
2022/08/06 01:28:09;;;;;;;3.80;1.55;;;13.50;78.30;;;;;;5108967;28;20495;-76
2022/08/06 01:30:42;;;;;;;1.52;1.27;;;13.40;78.30;;;;;;5109002;28;20551;-77
2022/08/06 01:33:13;;;;;;;1.75;1.30;;;13.40;78.80;;;;;;5108960;28;20031;-79
2022/08/06 01:35:42;;;;;;;2.10;1.40;;;13.30;78.70;;;;;;5091868;28;20055;-77
2022/08/06 01:38:13;;;;;;;3.97;1.95;;;13.30;78.60;;;;;;5074948;28;20064;-78
2022/08/06 01:40:42;;;;;;;3.63;1.48;;;13.10;79.40;;;;;;5092205;28;20086;-76
2022/08/06 01:43:11;;;;;;;3.08;1.85;;;13.10;79.00;;;;;;5091882;28;20047;-78
2022/08/06 01:45:38;;;;;;;2.10;1.90;;;13.00;79.80;;;;;;5108626;28;20048;-77
2022/08/06 01:48:09;;;;;;;4.20;1.85;;;12.90;79.20;;;;;;5108698;28;20036;-78
2022/08/06 01:50:48;;;;;;;4.93;2.00;;;12.90;79.40;;;;;;5074950;28;20047;-77
2022/08/06 01:53:18;;;;;;;1.52;1.42;;;12.80;79.60;;;;;;5109024;28;20044;-77
2022/08/06 01:55:48;;;;;;;2.53;1.38;;;12.80;79.60;;;;;;5108774;28;20083;-78
2022/08/06 01:58:20;;;;;;;2.03;1.42;;;12.80;79.80;;;;;;5108651;28;20040;-76
2022/08/06 02:00:47;;;;;;;2.67;1.70;;;12.80;79.70;;;;;;5108944;28;20036;-77
2022/08/06 02:03:30;;;;;;;2.67;1.58;;;12.80;79.90;;;;;;5108638;28;20510;-77
2022/08/06 02:06:00;;;;;;;3.53;1.63;;;12.80;79.80;;;;;;5108529;28;20048;-77
2022/08/06 02:08:29;;;;;;;3.83;2.00;;;12.70;80.40;;;;;;5108818;28;20044;-76
2022/08/06 02:10:58;;;;;;;2.47;1.70;;;12.70;80.30;;;;;;5091534;28;20051;-77
2022/08/06 02:13:25;;;;;;;2.78;1.77;;;12.70;80.20;;;;;;5108793;28;20484;-78
2022/08/06 02:15:53;;;;;;;3.40;1.80;;;12.70;80.60;;;;;;5074792;28;20105;-76
2022/08/06 02:18:22;;;;;;;3.20;1.60;;;12.80;80.30;;;;;;5076425;28;20052;-76
2022/08/06 02:20:52;;;;;;;2.65;1.70;;;12.80;80.60;;;;;;5112582;28;20047;-78
2022/08/06 02:23:21;;;;;;;4.95;2.03;;;12.70;80.50;;;;;;5112504;28;20491;-77
2022/08/06 02:25:51;;;;;;;3.72;2.15;;;12.70;80.60;;;;;;5112286;28;20076;-79
2022/08/06 02:28:19;;;;;;;3.88;2.10;;;12.80;80.70;;;;;;5112446;28;20494;-78
2022/08/06 02:30:49;;;;;;;1.98;1.58;;;12.80;80.80;;;;;;5112603;28;20187;-76
2022/08/06 02:33:15;;;;;;;2.80;1.80;;;12.80;80.90;;;;;;5112391;28;20043;-75
2022/08/06 02:35:56;;;;;;;2.92;2.22;;;12.80;80.90;;;;;;5078252;28;20051;-76
2022/08/06 02:38:29;;;;;;;3.55;2.00;;;12.90;81.10;;;;;;5078156;28;20468;-77
2022/08/06 02:41:00;;;;;;;2.65;2.10;;;12.90;80.90;;;;;;5078277;28;20074;-77
2022/08/06 02:43:38;;;;;;;4.40;2.22;;;12.80;81.60;;;;;;5112108;28;20051;-78
2022/08/06 02:46:14;;;;;;;3.60;2.10;;;12.80;81.70;;;;;;5111973;28;20036;-77
2022/08/06 02:48:42;;;;;;;2.53;1.70;;;12.80;81.30;;;;;;5111912;28;20040;-76
2022/08/06 02:51:27;;;;;;;5.30;2.55;;;12.70;81.50;;;;;;5111964;28;20043;-77
2022/08/06 02:54:10;;;;;;;4.72;2.40;;;12.70;81.40;;;;;;5112144;28;20062;-78
2022/08/06 02:56:41;;;;;;;6.47;2.72;;;12.60;82.10;;;;;;5111794;28;20055;-78
2022/08/06 02:59:08;;;;;;;3.75;2.33;;;12.60;82.40;;;;;;5111809;28;20101;-77
2022/08/06 03:01:52;;;;;;;4.38;2.40;;;12.50;81.90;;;;;;5111966;28;20044;-77
2022/08/06 03:04:21;;;;;;;2.60;2.35;;;12.50;82.30;;;;;;5111695;28;20036;-76
2022/08/06 03:06:47;;;;;;;3.83;2.90;;;12.50;82.10;;;;;;5111642;28;20036;-78
2022/08/06 03:09:16;;;;;;;4.07;2.15;;;12.50;82.40;;;;;;5077788;28;20036;-77
2022/08/06 03:11:45;;;;;;;3.70;2.28;;;12.50;82.30;;;;;;5111485;28;20039;-79
2022/08/06 03:14:14;;;;;;;2.05;1.92;;;12.50;82.40;;;;;;5077575;28;20500;-77
2022/08/06 03:16:41;;;;;;;4.47;2.20;;;12.50;82.30;;;;;;5111380;28;20040;-76
2022/08/06 03:19:09;;;;;;;3.50;2.30;;;12.50;82.20;;;;;;5111688;28;20089;-78
2022/08/06 03:21:35;;;;;;;3.38;2.13;;;12.50;82.20;;;;;;5077773;28;20044;-76
2022/08/06 03:24:02;;;;;;;3.70;2.08;;;12.50;82.60;;;;;;5111108;28;20036;-76
2022/08/06 03:26:29;;;;;;;4.93;2.20;;;12.50;83.10;;;;;;5111201;28;20037;-78
2022/08/06 03:28:58;;;;;;;3.65;2.50;;;12.50;82.90;;;;;;5077215;28;20380;-77
2022/08/06 03:31:25;;;;;;;4.07;2.35;;;12.50;83.00;;;;;;5076754;28;20032;-77
2022/08/06 03:33:53;;;;;;;2.78;2.30;;;12.50;82.80;;;;;;5111409;28;20082;-77
2022/08/06 03:36:20;;;;;;;3.25;2.50;;;12.60;82.80;;;;;;5112408;28;20408;-77
2022/08/06 03:38:50;;;;;;;3.78;2.30;;;12.60;82.90;;;;;;5097483;28;20047;-76
2022/08/06 03:41:17;;;;;;;3.40;2.15;;;12.60;83.80;;;;;;5097527;28;20156;-76
2022/08/06 03:43:43;;;;;;;3.97;2.42;;;12.50;83.50;;;;;;5080505;28;20044;-76
2022/08/06 03:46:09;;;;;;;3.30;1.88;;;12.60;83.90;;;;;;5114216;28;20047;-76
2022/08/06 03:48:41;;;;;;;3.85;2.10;;;12.60;83.40;;;;;;5114300;28;20100;-75
2022/08/06 03:51:13;;;;;;;3.58;2.63;;;12.70;83.20;;;;;;5114065;28;20055;-76
2022/08/06 03:53:41;;;;;;;3.70;2.33;;;12.70;82.90;;;;;;5097046;28;20040;-77
2022/08/06 03:56:08;;;;;;;3.72;3.05;;;12.70;83.10;;;;;;5113830;28;20128;-76
2022/08/06 03:58:38;;;;;;;7.35;2.75;;;12.70;83.20;;;;;;5096785;28;20047;-75
2022/08/06 04:01:09;;;;;;;4.57;3.20;;;12.70;83.00;;;;;;5079666;28;20487;-75
2022/08/06 04:03:36;;;;;;;4.13;2.63;;;12.60;83.10;;;;;;5113565;28;20504;-75
2022/08/06 04:06:02;;;;;;;4.53;2.20;;;12.70;82.90;;;;;;5096601;28;20044;-76
2022/08/06 04:08:29;;;;;;;4.50;2.50;;;12.70;83.10;;;;;;5080087;28;20042;-75
2022/08/06 04:10:56;;;;;;;3.30;2.03;;;12.70;83.10;;;;;;5114047;28;20044;-77
2022/08/06 04:13:23;;;;;;;2.78;2.33;;;12.60;83.80;;;;;;5096726;28;20075;-77
2022/08/06 04:15:50;;;;;;;3.15;2.60;;;12.70;83.30;;;;;;5113603;28;20044;-76
2022/08/06 04:18:21;;;;;;;3.60;2.30;;;12.60;83.80;;;;;;5080162;28;20039;-76
2022/08/06 04:20:50;;;;;;;4.55;2.38;;;12.70;83.50;;;;;;5096837;28;20439;-76
2022/08/06 04:23:16;;;;;;;2.60;2.28;;;12.70;84.10;;;;;;5079936;28;20106;-77
2022/08/06 04:25:50;;;;;;;3.25;2.10;;;12.70;83.70;;;;;;5096345;28;20039;-77
2022/08/06 04:28:17;;;;;;;3.13;2.45;;;12.70;83.90;;;;;;5079998;28;20429;-76
2022/08/06 04:30:44;;;;;;;3.70;2.13;;;12.70;83.40;;;;;;5079426;28;20491;-76
2022/08/06 04:33:13;;;;;;;3.03;2.40;;;12.70;83.30;;;;;;5113342;28;20047;-76
2022/08/06 04:35:42;;;;;;;5.10;2.60;;;12.70;83.40;;;;;;5079735;28;20100;-77
2022/08/06 04:38:09;;;;;;;4.18;2.42;;;12.70;83.30;;;;;;5079208;28;20055;-75
2022/08/06 04:40:38;;;;;;;4.00;1.90;;;12.80;83.30;;;;;;5079147;28;20539;-76
2022/08/06 04:43:06;;;;;;;3.97;2.47;;;12.80;83.60;;;;;;5096435;28;20111;-77
2022/08/06 04:45:33;;;;;;;3.80;2.40;;;12.80;83.40;;;;;;5096062;28;20120;-76
2022/08/06 04:48:00;;;;;;;3.60;2.50;;;12.90;83.40;;;;;;5096073;28;20061;-76
2022/08/06 04:50:26;;;;;;;3.35;2.28;;;12.90;83.40;;;;;;5113254;28;20110;-76
2022/08/06 04:52:52;;;;;;;4.57;2.40;;;13.00;83.50;;;;;;5113030;28;20176;-76
2022/08/06 04:55:20;;;;;;;2.63;2.10;;;13.00;83.50;;;;;;5079032;28;20039;-76
2022/08/06 04:57:45;;;;;;;3.03;2.50;;;13.00;83.50;;;;;;5112854;28;20468;-75
2022/08/06 05:00:12;;;;;;;2.92;2.30;;;13.10;83.70;;;;;;5095793;28;20135;-77
2022/08/06 05:02:37;;;;;;;3.05;2.17;;;13.20;83.80;;;;;;5112840;28;20096;-76
2022/08/06 05:05:04;;;;;;;2.80;1.52;;;13.30;84.30;;;;;;5112616;28;20039;-77
2022/08/06 05:07:32;;;;;;;2.38;1.98;;;13.40;84.10;;;;;;5078834;28;20039;-76
2022/08/06 05:09:58;;;;;;;4.05;2.33;;;13.50;83.50;;;;;;5112694;28;20097;-77
2022/08/06 05:12:31;;;;;;;4.70;2.92;;;13.60;84.00;;;;;;5078723;28;20097;-77
2022/08/06 05:15:14;;;;;;;3.53;1.85;;;13.60;83.50;;;;;;5112784;28;20043;-76
2022/08/06 05:17:49;;;;;;;1.90;1.40;;;13.70;83.30;;;;;;5095573;28;20073;-77
2022/08/06 05:20:17;;;;;;;5.80;2.60;;;13.80;83.20;;;;;;5095562;28;20040;-77
2022/08/06 05:22:49;;;;;;;3.05;1.67;;;13.90;83.30;;;;;;5095784;28;20066;-76
2022/08/06 05:25:16;;;;;;;2.67;1.80;;;14.00;83.10;;;;;;5095502;28;20484;-77
2022/08/06 05:27:42;;;;;;;4.35;1.67;;;14.00;82.90;;;;;;5095401;28;20539;-76
2022/08/06 05:30:09;;;;;;;2.95;1.90;;;14.10;82.80;;;;;;5078533;28;20040;-77
2022/08/06 05:32:45;;;;;;;3.90;1.95;;;14.20;82.50;;;;;;5095354;28;20127;-78
2022/08/06 05:35:12;;;;;;;3.30;1.95;;;14.40;82.40;;;;;;5079380;28;20459;-78
2022/08/06 05:37:38;;;;;;;3.03;1.55;;;14.50;82.20;;;;;;5108501;28;20062;-75
2022/08/06 05:40:05;;;;;;;3.85;1.70;;;14.60;81.80;;;;;;5108839;28;20122;-78
2022/08/06 05:42:31;;;;;;;5.07;2.00;;;14.70;81.60;;;;;;5109009;28;20072;-78
2022/08/06 05:44:57;;;;;;;4.35;1.73;;;14.80;81.40;;;;;;5108662;28;20523;-75
2022/08/06 05:47:35;;;;;;;3.25;1.40;;;14.90;81.30;;;;;;5109013;28;20040;-76
2022/08/06 05:50:09;;;;;;;5.03;1.40;;;15.00;81.10;;;;;;5108797;28;20075;-77
2022/08/06 05:53:05;;;;;;;3.22;1.70;;;15.00;81.10;;;;;;5110305;28;20040;-77
2022/08/06 05:55:39;;;;;;;4.22;1.60;;;15.10;80.80;;;;;;5076646;28;20059;-77
2022/08/06 05:58:12;;;;;;;4.47;1.60;;;15.20;80.70;;;;;;5115900;28;20388;-78
2022/08/06 06:00:39;;;;;;;5.03;1.52;;;15.30;80.70;;;;;;5115536;28;20043;-78
2022/08/06 06:03:09;;;;;;;2.05;1.15;;;15.30;80.60;;;;;;5099715;28;20089;-78
2022/08/06 06:05:36;;;;;;;2.13;1.10;;;15.40;80.30;;;;;;5115277;28;20071;-75
2022/08/06 06:08:04;;;;;;;2.90;1.10;;;15.40;79.30;;;;;;5115395;28;20039;-76
2022/08/06 06:10:31;;;;;;;2.47;1.40;;;15.50;78.90;;;;;;5081906;28;20046;-77
2022/08/06 06:12:58;;;;;;;1.60;1.35;;;15.50;78.70;;;;;;5081556;28;20097;-77
2022/08/06 06:15:24;;;;;;;1.95;1.00;;;15.60;78.60;;;;;;5115461;28;20112;-77
2022/08/06 06:18:12;;;;;;;2.08;1.00;;;15.70;78.30;;;;;;5098468;28;20044;-78
2022/08/06 06:21:04;;;;;;;2.65;1.20;;;15.80;77.80;;;;;;5115365;28;20040;-78
2022/08/06 06:24:06;;;;;;;3.38;1.13;;;15.90;77.70;;;;;;5098489;28;20418;-78
2022/08/06 06:26:37;;;;;;;5.60;1.20;;;16.00;76.90;;;;;;5115365;28;20040;-76
2022/08/06 06:29:32;;;;;;;2.30;0.90;;;16.10;76.50;;;;;;5115494;28;20040;-78
2022/08/06 06:32:07;;;;;;;3.67;1.15;;;16.10;76.70;;;;;;5115255;28;20082;-78
2022/08/06 06:34:59;;;;;;;3.35;1.35;;;16.10;76.60;;;;;;5081517;28;20040;-78
2022/08/06 06:37:43;;;;;;;3.55;1.38;;;16.20;76.80;;;;;;5115157;28;20164;-77
2022/08/06 06:40:25;;;;;;;4.70;1.67;;;16.30;76.90;;;;;;5115102;28;20100;-79
2022/08/06 06:43:23;;;;;;;2.97;1.42;;;16.40;77.20;;;;;;5115055;28;20081;-77
2022/08/06 06:46:04;;;;;;;4.65;1.67;;;16.50;77.00;;;;;;5077366;28;20518;-78
2022/08/06 06:49:01;;;;;;;6.88;2.00;;;16.70;76.90;;;;;;5098223;28;20048;-76
2022/08/06 06:51:35;;;;;;;1.80;1.33;;;16.80;75.60;;;;;;5103197;28;20471;-76
2022/08/06 06:54:01;;;;;;;2.83;1.70;;;16.90;74.20;;;;;;5115365;28;20044;-76
2022/08/06 06:56:31;;;;;;;3.80;1.55;;;16.90;73.40;;;;;;5115057;28;20039;-78
2022/08/06 06:59:11;;;;;;;4.15;1.60;;;17.00;72.50;;;;;;5115015;28;20040;-78
2022/08/06 07:01:38;;;;;;;2.13;1.38;;;17.10;72.40;;;;;;5097874;28;20168;-77
2022/08/06 07:04:08;;;;;;;3.53;1.50;;;17.20;71.40;;;;;;5079950;28;20051;-77
2022/08/06 07:06:36;;;;;;;3.88;1.67;;;17.20;70.40;;;;;;5094645;28;20040;-78
2022/08/06 07:09:03;;;;;;;2.45;1.42;;;17.30;69.60;;;;;;5111663;28;20036;-77
2022/08/06 07:11:30;;;;;;;6.32;2.13;;;17.40;69.60;;;;;;5077649;28;20181;-76
2022/08/06 07:13:58;;;;;;;3.72;1.77;;;17.50;69.50;;;;;;5077590;28;20047;-78
2022/08/06 07:16:26;;;;;;;4.20;1.67;;;17.50;69.80;;;;;;5111700;28;20048;-76
2022/08/06 07:18:53;;;;;;;3.25;1.83;;;17.60;69.50;;;;;;5111716;28;20044;-77
2022/08/06 07:21:20;;;;;;;3.47;2.25;;;17.60;69.30;;;;;;5111697;28;20108;-78
2022/08/06 07:23:50;;;;;;;3.50;1.50;;;17.70;69.10;;;;;;5094570;28;20059;-77
2022/08/06 07:26:18;;;;;;;3.22;1.83;;;17.80;68.60;;;;;;5077352;28;20044;-77
2022/08/06 07:28:44;;;;;;;3.33;1.45;;;17.90;68.20;;;;;;5111269;28;20042;-78
2022/08/06 07:31:11;;;;;;;2.65;1.42;;;18.00;67.70;;;;;;5111540;28;20383;-77
2022/08/06 07:33:41;;;;;;;4.05;1.63;;;17.90;67.30;;;;;;5111257;28;20036;-76
2022/08/06 07:36:08;;;;;;;3.70;1.88;;;18.00;67.20;;;;;;5111373;28;20040;-77
2022/08/06 07:38:36;;;;;;;2.70;1.48;;;18.00;67.20;;;;;;5077237;28;20048;-79
2022/08/06 07:41:04;;;;;;;4.65;1.88;;;18.10;66.50;;;;;;5093997;28;20044;-76
2022/08/06 07:43:40;;;;;;;4.50;1.98;;;18.10;66.20;;;;;;5111035;28;20054;-77
2022/08/06 07:46:08;;;;;;;2.63;1.30;;;18.20;66.40;;;;;;5094036;28;20044;-76
2022/08/06 07:48:43;;;;;;;2.38;1.55;;;18.20;66.50;;;;;;5111128;28;20093;-77
2022/08/06 07:51:10;;;;;;;3.78;1.48;;;18.10;66.40;;;;;;5111005;28;20122;-77
2022/08/06 07:53:38;;;;;;;3.28;1.30;;;18.00;67.10;;;;;;5110838;28;20067;-78
2022/08/06 07:56:08;;;;;;;3.97;1.92;;;18.00;67.40;;;;;;5111006;28;20392;-78
2022/08/06 07:58:36;;;;;;;3.63;1.20;;;18.10;67.50;;;;;;5094059;28;20044;-78
2022/08/06 08:01:02;;;;;;;5.28;2.58;;;18.20;67.40;;;;;;5110553;28;20090;-77
2022/08/06 08:06:17;;;;;;;4.50;1.75;;;18.20;66.70;;;;;;5110398;28;20131;-77
2022/08/06 08:08:48;;;;;;;4.35;1.67;;;18.30;67.00;;;;;;5110519;28;20090;-79
2022/08/06 08:11:16;;;;;;;5.00;1.85;;;18.40;66.50;;;;;;5110778;28;20387;-77
2022/08/06 08:13:42;;;;;;;3.50;1.65;;;18.50;64.40;;;;;;5110360;28;20036;-77
2022/08/06 08:16:11;;;;;;;2.80;1.45;;;18.70;63.90;;;;;;5110079;28;20047;-77
2022/08/06 08:18:39;;;;;;;3.85;1.65;;;18.80;63.70;;;;;;5110375;28;20044;-79
2022/08/06 08:21:06;;;;;;;2.35;1.33;;;19.00;63.50;;;;;;5111126;28;20075;-79
2022/08/06 08:23:34;;;;;;;2.95;1.63;;;19.10;63.40;;;;;;5110720;28;20471;-77
2022/08/06 08:26:02;;;;;;;5.88;1.95;;;19.00;62.80;;;;;;5109998;28;20039;-77
2022/08/06 08:28:30;;;;;;;4.57;1.90;;;18.90;63.60;;;;;;5076400;28;20572;-76
2022/08/06 08:31:01;;;;;;;3.38;2.33;;;18.70;64.30;;;;;;5110008;28;20104;-77
2022/08/06 08:33:27;;;;;;;3.42;1.88;;;18.70;64.40;;;;;;5110080;28;20036;-78
2022/08/06 08:35:53;;;;;;;3.55;1.83;;;18.70;63.70;;;;;;5109839;28;20051;-77
2022/08/06 08:38:19;;;;;;;7.05;2.00;;;18.90;63.30;;;;;;5109811;28;20048;-79
2022/08/06 08:40:50;;;;;;;2.20;1.50;;;19.10;61.60;;;;;;5093127;28;20052;-77
2022/08/06 08:43:25;;;;;;;2.80;1.60;;;19.30;60.50;;;;;;5109888;28;20047;-78
2022/08/06 08:45:53;;;;;;;2.45;1.63;;;19.40;59.50;;;;;;5109683;28;20044;-77
2022/08/06 08:48:24;;;;;;;2.25;1.40;;;19.50;59.00;;;;;;5059236;28;20047;-78
2022/08/06 08:50:50;;;;;;;3.55;1.77;;;19.60;57.80;;;;;;5109650;28;20119;-78
2022/08/06 08:54:00;;;;;;;3.25;1.40;;;19.60;57.90;;;;;;5109606;28;20040;-78
2022/08/06 08:56:26;;;;;;;4.22;1.80;;;19.80;58.10;;;;;;5079829;28;20055;-78
2022/08/06 08:58:52;;;;;;;2.67;1.60;;;19.90;56.30;;;;;;5075708;28;20036;-79
2022/08/06 09:01:18;;;;;;;2.78;1.45;;;19.80;54.30;;;;;;5109508;28;20032;-78
2022/08/06 09:03:45;;;;;;;3.22;1.80;;;19.80;55.10;;;;;;5059025;28;20044;-78
2022/08/06 09:06:11;;;;;;;2.83;1.55;;;19.90;55.70;;;;;;5109247;28;20082;-77
2022/08/06 09:08:37;;;;;;;4.10;1.50;;;20.00;55.60;;;;;;5109691;28;20044;-78
2022/08/06 09:11:04;;;;;;;2.05;1.33;;;20.20;55.80;;;;;;5058821;28;20101;-78
2022/08/06 09:13:30;;;;;;;2.33;1.80;;;20.30;54.80;;;;;;5109263;28;20036;-78
2022/08/06 09:15:57;;;;;;;3.05;1.60;;;20.50;54.40;;;;;;5075368;28;20040;-77
2022/08/06 09:18:24;;;;;;;4.53;1.80;;;20.60;52.90;;;;;;5109184;28;20040;-78
2022/08/06 09:20:50;;;;;;;3.38;1.70;;;20.70;54.40;;;;;;5109451;28;20395;-78
2022/08/06 09:23:17;;;;;;;2.75;1.52;;;20.80;53.50;;;;;;5109122;28;20040;-78
2022/08/06 09:25:50;;;;;;;3.30;1.83;;;20.70;53.70;;;;;;5108981;28;20050;-78
2022/08/06 09:28:28;;;;;;;3.25;1.95;;;20.60;54.20;;;;;;5108296;28;20050;-79
2022/08/06 09:31:07;;;;;;;4.03;1.60;;;20.60;53.90;;;;;;5108989;28;20040;-78
2022/08/06 09:33:36;;;;;;;5.03;2.13;;;20.50;54.00;;;;;;5108910;28;20036;-78
2022/08/06 09:36:08;;;;;;;2.70;1.90;;;20.40;52.90;;;;;;5108874;28;20066;-79
2022/08/06 09:38:48;;;;;;;2.10;1.70;;;20.50;52.90;;;;;;5108751;28;20052;-78
2022/08/06 09:41:14;;;;;;;3.85;2.10;;;20.50;53.90;;;;;;5075348;28;20074;-78
2022/08/06 09:43:41;;;;;;;3.65;2.38;;;20.70;53.90;;;;;;5108756;28;20481;-78
2022/08/06 09:46:07;;;;;;;5.00;2.00;;;20.90;54.40;;;;;;5075099;28;20509;-79
2022/08/06 09:48:34;;;;;;;2.58;1.80;;;21.00;54.10;;;;;;5108793;28;20048;-77
2022/08/06 09:51:00;;;;;;;5.72;2.13;;;20.90;54.40;;;;;;5074977;28;20047;-78
2022/08/06 09:53:26;;;;;;;5.18;2.55;;;20.70;55.40;;;;;;5108765;28;20036;-78
2022/08/06 09:55:53;;;;;;;2.70;2.00;;;20.50;55.90;;;;;;5108935;28;20080;-79
2022/08/06 09:58:35;;;;;;;3.65;2.35;;;20.10;57.20;;;;;;5108653;28;20040;-77
2022/08/06 10:01:16;;;;;;;3.05;2.25;;;19.90;57.50;;;;;;5108986;28;20040;-77
2022/08/06 10:03:42;;;;;;;4.13;1.92;;;19.70;57.90;;;;;;5091627;28;20036;-78
2022/08/06 10:06:20;;;;;;;3.80;1.50;;;19.60;57.70;;;;;;5108393;28;20127;-79
2022/08/06 10:08:48;;;;;;;3.35;1.90;;;19.60;58.60;;;;;;5108848;28;20048;-77
2022/08/06 10:11:14;;;;;;;4.18;1.95;;;19.50;58.70;;;;;;5108503;28;20047;-78
2022/08/06 10:13:45;;;;;;;3.30;2.35;;;19.60;57.50;;;;;;5074782;28;20036;-79
2022/08/06 10:16:26;;;;;;;6.18;2.15;;;19.60;58.00;;;;;;5108610;28;20392;-79
2022/08/06 10:18:53;;;;;;;3.70;2.00;;;19.50;58.10;;;;;;5108453;28;20097;-78
2022/08/06 10:21:22;;;;;;;3.05;1.98;;;19.50;58.10;;;;;;5074670;28;20056;-79
2022/08/06 10:23:53;;;;;;;3.83;1.95;;;19.60;58.20;;;;;;5108423;28;20070;-79
2022/08/06 10:26:28;;;;;;;3.58;1.95;;;19.80;57.80;;;;;;5074455;28;20044;-78
2022/08/06 10:28:59;;;;;;;3.13;2.03;;;20.00;56.80;;;;;;5108460;28;20082;-79
2022/08/06 10:31:26;;;;;;;4.45;1.98;;;20.30;55.90;;;;;;5108367;28;20126;-78
2022/08/06 10:34:11;;;;;;;3.47;1.88;;;20.60;55.60;;;;;;5108693;28;20491;-79
2022/08/06 10:36:44;;;;;;;4.00;1.50;;;20.70;52.90;;;;;;5076106;28;20044;-79
2022/08/06 10:39:13;;;;;;;3.25;1.80;;;20.80;51.80;;;;;;5096017;28;20055;-78
2022/08/06 10:41:41;;;;;;;2.03;1.48;;;20.90;52.50;;;;;;5098437;28;20086;-79
2022/08/06 10:44:08;;;;;;;3.22;1.40;;;21.10;52.40;;;;;;5098490;28;20048;-80
2022/08/06 10:46:35;;;;;;;2.25;1.48;;;21.40;51.40;;;;;;5115394;28;20380;-79
2022/08/06 10:49:01;;;;;;;4.05;1.88;;;21.60;51.50;;;;;;5098405;28;20040;-79
2022/08/06 10:51:27;;;;;;;2.85;1.50;;;21.70;50.90;;;;;;5081391;28;20034;-80
2022/08/06 10:53:54;;;;;;;3.28;1.23;;;21.90;50.70;;;;;;5098375;28;20048;-78
2022/08/06 10:56:20;;;;;;;2.53;1.48;;;21.90;50.70;;;;;;5098450;28;20043;-80
2022/08/06 10:58:48;;;;;;;4.68;1.58;;;22.20;49.60;;;;;;5081501;28;20040;-77
2022/08/06 11:01:43;;;;;;;1.88;1.38;;;22.20;49.40;;;;;;5081723;28;20088;-78
2022/08/06 11:04:40;;;;;;;10.90;1.80;;;22.30;49.30;;;;;;5098423;28;20044;-75
2022/08/06 11:07:26;;;;;;;2.38;1.50;;;22.40;50.00;;;;;;5098334;28;20441;-76
2022/08/06 11:10:13;;;;;;;3.17;1.80;;;22.30;50.30;;;;;;5081100;28;20046;-76
2022/08/06 11:12:54;;;;;;;2.55;1.65;;;22.20;50.60;;;;;;5115295;28;20043;-77
2022/08/06 11:15:20;;;;;;;6.63;1.75;;;22.40;50.30;;;;;;5098182;28;20403;-78
2022/08/06 11:18:02;;;;;;;4.10;1.80;;;22.60;48.40;;;;;;5114891;28;20039;-78
2022/08/06 11:20:39;;;;;;;3.28;1.80;;;22.60;48.30;;;;;;5097813;28;20047;-76
2022/08/06 11:23:11;;;;;;;4.38;1.63;;;22.50;48.90;;;;;;5114803;28;20045;-76
2022/08/06 11:25:45;;;;;;;3.58;1.95;;;22.20;47.10;;;;;;5114468;28;20043;-76
2022/08/06 11:28:35;;;;;;;4.97;2.17;;;22.10;48.20;;;;;;5114773;28;20036;-75
2022/08/06 11:31:04;;;;;;;2.78;1.90;;;22.00;49.20;;;;;;5080090;28;20057;-76
2022/08/06 11:33:32;;;;;;;2.78;2.40;;;21.80;49.10;;;;;;5114851;28;20391;-75
2022/08/06 11:36:09;;;;;;;3.83;2.17;;;21.90;48.70;;;;;;5080479;28;20051;-76
2022/08/06 11:38:47;;;;;;;3.17;1.85;;;22.20;48.30;;;;;;5080520;28;20062;-75
2022/08/06 11:41:23;;;;;;;2.40;1.75;;;22.50;49.20;;;;;;5097646;28;20446;-75
2022/08/06 11:43:52;;;;;;;3.25;1.80;;;22.50;48.20;;;;;;5114415;28;20050;-77
2022/08/06 11:46:33;;;;;;;2.45;1.63;;;22.30;48.40;;;;;;5080340;28;20044;-76
2022/08/06 11:48:58;;;;;;;3.65;2.22;;;22.00;48.80;;;;;;5114544;28;20039;-77
2022/08/06 11:51:45;;;;;;;3.83;1.90;;;22.20;48.40;;;;;;5079788;28;20027;-77
2022/08/06 11:54:14;;;;;;;2.47;1.75;;;22.40;47.90;;;;;;5114189;28;20040;-78
2022/08/06 11:57:01;;;;;;;3.13;1.90;;;22.60;47.50;;;;;;5114091;28;20044;-79
2022/08/06 11:59:37;;;;;;;4.15;2.05;;;22.70;47.10;;;;;;5097040;28;20039;-78
2022/08/06 12:02:08;;;;;;;2.92;1.80;;;22.90;46.90;;;;;;5097000;28;20544;-78
2022/08/06 12:04:36;;;;;;;3.42;1.95;;;23.00;45.30;;;;;;5096872;28;20130;-79
2022/08/06 12:07:17;;;;;;;3.03;1.83;;;23.20;45.90;;;;;;5080566;28;20040;-78
2022/08/06 12:09:45;;;;;;;3.58;1.75;;;23.40;46.40;;;;;;5080005;28;20043;-78
2022/08/06 12:12:29;;;;;;;4.78;2.45;;;23.40;45.70;;;;;;5080198;28;20050;-79
2022/08/06 12:14:56;;;;;;;4.10;1.90;;;23.40;45.80;;;;;;5113845;28;20048;-78
2022/08/06 12:17:24;;;;;;;3.72;1.75;;;23.10;45.80;;;;;;5113712;28;20495;-78
2022/08/06 12:19:53;;;;;;;3.65;1.80;;;23.00;46.20;;;;;;5113596;28;20142;-78
2022/08/06 12:22:21;;;;;;;2.35;1.80;;;23.20;46.40;;;;;;5113646;28;20118;-78
2022/08/06 12:24:57;;;;;;;2.10;1.70;;;23.30;45.40;;;;;;5113673;28;20039;-78
2022/08/06 12:27:23;;;;;;;2.47;1.80;;;23.30;44.40;;;;;;5113830;28;20383;-78
2022/08/06 12:29:59;;;;;;;2.78;2.00;;;23.40;45.20;;;;;;5113692;28;20491;-78
2022/08/06 12:32:32;;;;;;;2.53;1.80;;;23.60;45.20;;;;;;5096410;28;20097;-77
2022/08/06 12:35:03;;;;;;;2.42;1.65;;;23.40;45.50;;;;;;5113313;28;20069;-78
2022/08/06 12:37:40;;;;;;;3.78;2.40;;;23.10;45.80;;;;;;5096136;28;20063;-78
2022/08/06 12:40:29;;;;;;;3.95;2.03;;;22.90;46.50;;;;;;5113245;28;20047;-79
2022/08/06 12:43:01;;;;;;;3.55;2.45;;;22.60;47.20;;;;;;5113176;28;20051;-78
2022/08/06 12:45:28;;;;;;;3.60;2.28;;;22.40;47.80;;;;;;5113177;28;20136;-79
2022/08/06 12:48:09;;;;;;;2.95;2.53;;;22.10;48.30;;;;;;5096401;28;20400;-77
2022/08/06 12:50:37;;;;;;;3.13;2.20;;;22.00;48.40;;;;;;5096134;28;20043;-78
2022/08/06 12:53:17;;;;;;;3.13;2.40;;;22.40;49.30;;;;;;5113346;28;20035;-79
2022/08/06 12:55:53;;;;;;;5.18;2.20;;;22.90;48.10;;;;;;5113021;28;20180;-78
2022/08/06 12:58:30;;;;;;;4.07;2.55;;;23.20;46.70;;;;;;5113187;28;20047;-77
2022/08/06 13:00:58;;;;;;;2.00;1.70;;;22.90;46.80;;;;;;5095959;28;20399;-79
2022/08/06 13:03:25;;;;;;;2.72;2.40;;;22.70;47.40;;;;;;5095759;28;20079;-77
2022/08/06 13:05:53;;;;;;;2.75;2.03;;;22.70;46.80;;;;;;5112593;28;20036;-78
2022/08/06 13:08:20;;;;;;;3.58;2.40;;;22.90;47.40;;;;;;5095831;28;20036;-79
2022/08/06 13:10:55;;;;;;;3.33;2.58;;;23.10;47.00;;;;;;5112992;28;20485;-77